sensor_id;sensor_type;location;lat;lon;timestamp;P1;durP1;ratioP1;P2;durP2;ratioP2
75465;SDS011;64049;46.290;44.240;2022-11-11T19:35:56;30.75;;;11.68;;
75465;SDS011;64049;46.290;44.240;2022-11-11T19:38:41;28.58;;;12.23;;
75465;SDS011;64049;46.290;44.240;2022-11-11T19:41:26;30.48;;;12.35;;
75465;SDS011;64049;46.290;44.240;2022-11-11T19:44:12;23.23;;;12.10;;
75465;SDS011;64049;46.290;44.240;2022-11-11T19:46:56;25.85;;;11.80;;
75465;SDS011;64049;46.290;44.240;2022-11-11T19:49:41;31.65;;;13.05;;
75465;SDS011;64049;46.290;44.240;2022-11-11T19:52:26;30.70;;;12.27;;
75465;SDS011;64049;46.290;44.240;2022-11-11T19:55:10;33.50;;;13.98;;
75465;SDS011;64049;46.290;44.240;2022-11-11T19:57:55;30.67;;;12.27;;
75465;SDS011;64049;46.290;44.240;2022-11-11T20:00:41;28.88;;;12.73;;
75465;SDS011;64049;46.290;44.240;2022-11-11T20:03:25;31.23;;;12.68;;
75465;SDS011;64049;46.290;44.240;2022-11-11T20:09:09;31.38;;;14.43;;
75465;SDS011;64049;46.290;44.240;2022-11-11T20:11:54;27.50;;;13.50;;
75465;SDS011;64049;46.290;44.240;2022-11-11T20:14:38;36.67;;;13.55;;
75465;SDS011;64049;46.290;44.240;2022-11-11T20:17:23;30.40;;;13.23;;
75465;SDS011;64049;46.290;44.240;2022-11-11T20:20:08;32.03;;;13.10;;
75465;SDS011;64049;46.290;44.240;2022-11-11T20:22:53;24.75;;;11.40;;
75465;SDS011;64049;46.290;44.240;2022-11-11T20:25:37;27.10;;;12.25;;
75465;SDS011;64049;46.290;44.240;2022-11-11T20:28:22;29.08;;;12.65;;
75465;SDS011;64049;46.290;44.240;2022-11-11T20:31:07;28.10;;;12.35;;
75465;SDS011;64049;46.290;44.240;2022-11-11T20:33:57;34.45;;;14.45;;
75465;SDS011;64049;46.290;44.240;2022-11-11T20:36:41;30.73;;;13.75;;
75465;SDS011;64049;46.290;44.240;2022-11-11T20:39:26;26.58;;;12.80;;
75465;SDS011;64049;46.290;44.240;2022-11-11T20:42:10;27.88;;;12.93;;
75465;SDS011;64049;46.290;44.240;2022-11-11T20:44:55;28.55;;;12.00;;
75465;SDS011;64049;46.290;44.240;2022-11-11T20:47:39;30.92;;;13.05;;
75465;SDS011;64049;46.290;44.240;2022-11-11T20:50:24;38.50;;;14.85;;
75465;SDS011;64049;46.290;44.240;2022-11-11T20:53:09;31.95;;;12.43;;
75465;SDS011;64049;46.290;44.240;2022-11-11T20:55:57;27.52;;;12.32;;
75465;SDS011;64049;46.290;44.240;2022-11-11T20:58:43;26.73;;;12.07;;
75465;SDS011;64049;46.290;44.240;2022-11-11T21:01:27;29.98;;;12.10;;
75465;SDS011;64049;46.290;44.240;2022-11-11T21:04:12;33.15;;;13.93;;
75465;SDS011;64049;46.290;44.240;2022-11-11T21:06:56;32.85;;;14.10;;
75465;SDS011;64049;46.290;44.240;2022-11-11T21:09:41;34.95;;;14.77;;
75465;SDS011;64049;46.290;44.240;2022-11-11T21:12:25;29.83;;;14.20;;
75465;SDS011;64049;46.290;44.240;2022-11-11T21:15:10;26.30;;;11.95;;
75465;SDS011;64049;46.290;44.240;2022-11-11T21:17:54;27.23;;;13.00;;
75465;SDS011;64049;46.290;44.240;2022-11-11T21:20:39;28.45;;;11.75;;
75465;SDS011;64049;46.290;44.240;2022-11-11T21:23:23;29.52;;;12.88;;
75465;SDS011;64049;46.290;44.240;2022-11-11T21:26:09;32.72;;;12.82;;
75465;SDS011;64049;46.290;44.240;2022-11-11T21:28:55;26.80;;;11.73;;
75465;SDS011;64049;46.290;44.240;2022-11-11T21:31:39;24.10;;;12.07;;
75465;SDS011;64049;46.290;44.240;2022-11-11T21:34:26;28.92;;;12.43;;
75465;SDS011;64049;46.290;44.240;2022-11-11T21:37:10;29.80;;;12.60;;
75465;SDS011;64049;46.290;44.240;2022-11-11T21:39:54;34.30;;;13.38;;
75465;SDS011;64049;46.290;44.240;2022-11-11T21:42:39;27.38;;;13.07;;
75465;SDS011;64049;46.290;44.240;2022-11-11T21:45:23;28.33;;;12.73;;
75465;SDS011;64049;46.290;44.240;2022-11-11T21:48:08;35.53;;;13.02;;
75465;SDS011;64049;46.290;44.240;2022-11-11T21:50:52;29.42;;;13.05;;
75465;SDS011;64049;46.290;44.240;2022-11-11T21:53:43;30.08;;;13.52;;
75465;SDS011;64049;46.290;44.240;2022-11-11T21:56:32;26.67;;;11.40;;
75465;SDS011;64049;46.290;44.240;2022-11-11T21:59:18;23.85;;;11.45;;
75465;SDS011;64049;46.290;44.240;2022-11-11T22:02:03;25.52;;;10.80;;
75465;SDS011;64049;46.290;44.240;2022-11-11T22:04:48;25.92;;;10.70;;
75465;SDS011;64049;46.290;44.240;2022-11-11T22:07:32;25.77;;;11.95;;
75465;SDS011;64049;46.290;44.240;2022-11-11T22:10:17;25.88;;;11.07;;
75465;SDS011;64049;46.290;44.240;2022-11-11T22:13:01;27.27;;;11.27;;
75465;SDS011;64049;46.290;44.240;2022-11-11T22:15:46;24.58;;;10.73;;
75465;SDS011;64049;46.290;44.240;2022-11-11T22:18:30;24.83;;;10.73;;
75465;SDS011;64049;46.290;44.240;2022-11-11T22:21:16;27.90;;;10.65;;
75465;SDS011;64049;46.290;44.240;2022-11-11T22:24:04;20.63;;;9.98;;
75465;SDS011;64049;46.290;44.240;2022-11-11T22:26:51;21.00;;;10.43;;
75465;SDS011;64049;46.290;44.240;2022-11-11T22:29:35;24.77;;;11.35;;
75465;SDS011;64049;46.290;44.240;2022-11-11T22:32:20;22.23;;;10.50;;
75465;SDS011;64049;46.290;44.240;2022-11-11T22:35:04;24.40;;;10.60;;
75465;SDS011;64049;46.290;44.240;2022-11-11T22:37:49;24.23;;;11.50;;
75465;SDS011;64049;46.290;44.240;2022-11-11T22:40:33;24.92;;;11.70;;
75465;SDS011;64049;46.290;44.240;2022-11-11T22:43:18;21.00;;;10.88;;
75465;SDS011;64049;46.290;44.240;2022-11-11T22:46:04;25.23;;;11.30;;
75465;SDS011;64049;46.290;44.240;2022-11-11T22:48:57;21.75;;;10.52;;
75465;SDS011;64049;46.290;44.240;2022-11-11T22:51:43;24.15;;;10.10;;
75465;SDS011;64049;46.290;44.240;2022-11-11T22:54:27;21.67;;;11.07;;
75465;SDS011;64049;46.290;44.240;2022-11-11T22:57:12;26.55;;;11.52;;
75465;SDS011;64049;46.290;44.240;2022-11-11T22:59:56;25.50;;;11.05;;
75465;SDS011;64049;46.290;44.240;2022-11-11T23:02:41;24.48;;;10.63;;
75465;SDS011;64049;46.290;44.240;2022-11-11T23:05:25;26.40;;;11.18;;
75465;SDS011;64049;46.290;44.240;2022-11-11T23:08:10;25.65;;;10.02;;
75465;SDS011;64049;46.290;44.240;2022-11-11T23:11:02;23.85;;;10.32;;
75465;SDS011;64049;46.290;44.240;2022-11-11T23:13:48;22.13;;;9.98;;
75465;SDS011;64049;46.290;44.240;2022-11-11T23:16:33;24.45;;;10.40;;
75465;SDS011;64049;46.290;44.240;2022-11-11T23:19:17;21.50;;;10.48;;
75465;SDS011;64049;46.290;44.240;2022-11-11T23:22:02;22.77;;;11.43;;
75465;SDS011;64049;46.290;44.240;2022-11-11T23:24:46;19.98;;;9.55;;
75465;SDS011;64049;46.290;44.240;2022-11-11T23:27:31;26.70;;;11.18;;
75465;SDS011;64049;46.290;44.240;2022-11-11T23:30:15;21.33;;;10.48;;
75465;SDS011;64049;46.290;44.240;2022-11-11T23:33:00;18.67;;;8.93;;
75465;SDS011;64049;46.290;44.240;2022-11-11T23:35:44;20.02;;;8.43;;
75465;SDS011;64049;46.290;44.240;2022-11-11T23:38:29;17.77;;;9.00;;
75465;SDS011;64049;46.290;44.240;2022-11-11T23:41:14;16.40;;;8.77;;
75465;SDS011;64049;46.290;44.240;2022-11-11T23:43:59;28.15;;;8.77;;
75465;SDS011;64049;46.290;44.240;2022-11-11T23:46:43;18.88;;;8.55;;
75465;SDS011;64049;46.290;44.240;2022-11-11T23:49:28;18.75;;;9.23;;
75465;SDS011;64049;46.290;44.240;2022-11-11T23:52:12;19.77;;;9.45;;
75465;SDS011;64049;46.290;44.240;2022-11-11T23:54:57;22.50;;;9.00;;
75465;SDS011;64049;46.290;44.240;2022-11-11T23:57:41;19.48;;;8.32;;
